| time (UTC) | temp F | wind direction | speed MPH | gust MPH | rain 1hr in | rain 24hr in | rain mn in | humidity % | barometer mb |
| 20260509091557 | 66 | 0 | 0.0 | 0.0 | 0.00 | 0.19 | 0.05 | 98 | 1011.2 |
| 20260509084602 | 67 | 0 | 0.0 | 0.0 | 0.00 | 0.19 | 0.05 | 98 | 1011.1 |
| 20260509083052 | 67 | 0 | 0.0 | 0.0 | 0.00 | 0.19 | 0.05 | 98 | 1011.3 |
| 20260509081559 | 67 | 0 | 0.0 | 0.0 | 0.00 | 0.19 | 0.05 | 98 | 1011.2 |
| 20260509080059 | 67 | 0 | 0.0 | 0.0 | 0.00 | 0.19 | 0.05 | 98 | 1011.6 |
| 20260509074552 | 67 | 0 | 0.0 | 0.0 | 0.00 | 0.19 | 0.05 | 98 | 1011.6 |
| 20260509073054 | 67 | 0 | 0.0 | 2.0 | 0.00 | 0.19 | 0.05 | 98 | 1011.6 |
| 20260509071551 | 67 | 0 | 0.0 | 2.0 | 0.00 | 0.19 | 0.05 | 98 | 1012.0 |
| 20260509070053 | 67 | 0 | 0.0 | 1.0 | 0.00 | 0.19 | 0.05 | 97 | 1012.1 |
| 20260509064558 | 67 | 73 | 0.0 | 2.0 | 0.00 | 0.19 | 0.05 | 97 | 1012.4 |
| 20260509063050 | 67 | 0 | 0.0 | 2.0 | 0.00 | 0.19 | 0.05 | 97 | 1012.8 |
| 20260509061604 | 67 | 0 | 1.0 | 2.0 | 0.00 | 0.19 | 0.05 | 97 | 1012.7 |
| 20260509060051 | 67 | 0 | 0.0 | 1.0 | 0.00 | 0.19 | 0.05 | 97 | 1013.1 |
| 20260509054610 | 67 | 0 | 0.0 | 1.0 | 0.01 | 0.19 | 0.05 | 97 | 1013.0 |
| 20260509053055 | 67 | 0 | 0.0 | 2.0 | 0.01 | 0.19 | 0.05 | 97 | 1013.2 |
| 20260509051604 | 66 | 0 | 0.0 | 1.0 | 0.02 | 0.19 | 0.05 | 96 | 1013.8 |
| 20260509050053 | 66 | 0 | 0.0 | 2.0 | 0.05 | 0.19 | 0.05 | 96 | 1014.4 |
| 20260509044557 | 66 | 0 | 0.0 | 3.0 | 0.13 | 0.18 | 0.04 | 96 | 1014.6 |
| 20260509043051 | 66 | 79 | 1.0 | 3.0 | 0.18 | 0.18 | 0.04 | 95 | 1014.7 |
| 20260509041552 | 66 | 0 | 0.0 | 3.0 | 0.17 | 0.17 | 0.03 | 94 | 1014.9 |
| 20260509040054 | 66 | 0 | 0.0 | 3.0 | 0.14 | 0.14 | 0.00 | 93 | 1015.2 |
| 20260509034555 | 67 | 0 | 3.0 | 9.0 | 0.05 | 0.05 | 0.05 | 92 | 1015.3 |
| 20260509033054 | 70 | 331 | 2.0 | 7.0 | 0.00 | 0.00 | 0.00 | 93 | 1015.4 |
| 20260509031607 | 70 | 352 | 1.0 | 3.0 | 0.00 | 0.00 | 0.00 | 93 | 1015.0 |
| 20260509030059 | 71 | 61 | 0.0 | 5.0 | 0.00 | 0.00 | 0.00 | 92 | 1014.6 |
| 20260509024556 | 72 | 268 | 1.0 | 7.0 | 0.00 | 0.00 | 0.00 | 92 | 1015.0 |
| 20260509023111 | 72 | 144 | 0.0 | 3.0 | 0.00 | 0.00 | 0.00 | 93 | 1014.6 |
| 20260509021552 | 72 | 46 | 1.0 | 3.0 | 0.00 | 0.00 | 0.00 | 93 | 1014.4 |
| 20260509020053 | 72 | 41 | 0.0 | 3.0 | 0.00 | 0.00 | 0.00 | 92 | 1014.2 |
| 20260509014552 | 72 | 104 | 0.0 | 2.0 | 0.00 | 0.00 | 0.00 | 92 | 1014.1 |
| 20260509013052 | 72 | 0 | 0.0 | 1.0 | 0.00 | 0.00 | 0.00 | 92 | 1013.7 |
| 20260509011555 | 72 | 0 | 0.0 | 2.0 | 0.00 | 0.00 | 0.00 | 92 | 1013.6 |
| 20260509010054 | 72 | 0 | 0.0 | 2.0 | 0.00 | 0.00 | 0.00 | 92 | 1013.5 |
| 20260509004601 | 72 | 0 | 0.0 | 3.0 | 0.00 | 0.00 | 0.00 | 91 | 1013.3 |
| 20260509003057 | 72 | 38 | 0.0 | 1.0 | 0.00 | 0.00 | 0.00 | 91 | 1013.4 |
| 20260509001552 | 72 | 102 | 0.0 | 3.0 | 0.00 | 0.00 | 0.00 | 91 | 1013.1 |
| 20260509000054 | 72 | 24 | 1.0 | 5.0 | 0.00 | 0.00 | 0.00 | 90 | 1012.8 |
| 20260508234556 | 72 | 0 | 1.0 | 7.0 | 0.00 | 0.00 | 0.00 | 89 | 1012.8 |
| 20260508233058 | 73 | 195 | 2.0 | 6.0 | 0.00 | 0.00 | 0.00 | 89 | 1012.8 |
| 20260508231600 | 73 | 97 | 0.0 | 6.0 | 0.00 | 0.00 | 0.00 | 88 | 1012.7 |
| 20260508230125 | 73 | 69 | 2.0 | 7.0 | 0.00 | 0.00 | 0.00 | 87 | 1012.6 |
| 20260508224604 | 73 | 115 | 1.0 | 6.0 | 0.00 | 0.00 | 0.00 | 87 | 1012.7 |
| 20260508223058 | 73 | 55 | 2.0 | 7.0 | 0.00 | 0.00 | 0.00 | 86 | 1012.3 |
| 20260508221552 | 74 | 10 | 2.0 | 7.0 | 0.00 | 0.00 | 0.00 | 86 | 1012.3 |
| 20260508220121 | 74 | 76 | 1.0 | 7.0 | 0.00 | 0.00 | 0.00 | 85 | 1012.4 |
| 20260508214557 | 74 | 52 | 1.0 | 8.0 | 0.00 | 0.00 | 0.00 | 84 | 1012.4 |
| 20260508213056 | 74 | 103 | 2.0 | 9.0 | 0.00 | 0.00 | 0.00 | 83 | 1012.2 |
| 20260508211555 | 75 | 76 | 2.0 | 6.0 | 0.00 | 0.00 | 0.00 | 82 | 1012.2 |
| 20260508210059 | 74 | 74 | 2.0 | 10.0 | 0.00 | 0.00 | 0.00 | 81 | 1012.3 |
| 20260508204605 | 75 | 190 | 3.0 | 10.0 | 0.00 | 0.00 | 0.00 | 80 | 1012.3 |
| 20260508203058 | 75 | 83 | 2.0 | 10.0 | 0.00 | 0.00 | 0.00 | 79 | 1012.4 |
| 20260508201555 | 76 | 91 | 2.0 | 8.0 | 0.00 | 0.00 | 0.00 | 79 | 1012.5 |
| 20260508200100 | 76 | 106 | 1.0 | 7.0 | 0.00 | 0.00 | 0.00 | 80 | 1012.8 |
| 20260508194554 | 75 | 40 | 1.0 | 7.0 | 0.00 | 0.00 | 0.00 | 80 | 1013.1 |
| 20260508193100 | 75 | 81 | 1.0 | 6.0 | 0.00 | 0.00 | 0.00 | 82 | 1013.3 |
| 20260508191553 | 75 | 82 | 0.0 | 6.0 | 0.00 | 0.00 | 0.00 | 80 | 1013.6 |
| 20260508190105 | 75 | 105 | 2.0 | 9.0 | 0.00 | 0.00 | 0.00 | 80 | 1013.6 |
| 20260508184555 | 75 | 5 | 1.0 | 4.0 | 0.00 | 0.00 | 0.00 | 80 | 1013.5 |
| 20260508183053 | 75 | 30 | 1.0 | 4.0 | 0.00 | 0.00 | 0.00 | 80 | 1013.8 |
| 20260508181608 | 75 | 105 | 1.0 | 8.0 | 0.00 | 0.00 | 0.00 | 79 | 1013.8 |
| 20260508180104 | 76 | 67 | 2.0 | 7.0 | 0.00 | 0.00 | 0.00 | 77 | 1013.6 |
| 20260508174604 | 75 | 76 | 2.0 | 6.0 | 0.00 | 0.00 | 0.00 | 77 | 1013.9 |
| 20260508173053 | 75 | 352 | 1.0 | 7.0 | 0.00 | 0.00 | 0.00 | 77 | 1013.9 |
| 20260508171555 | 75 | 62 | 1.0 | 7.0 | 0.00 | 0.00 | 0.00 | 76 | 1014.3 |
| 20260508170059 | 75 | 103 | 1.0 | 7.0 | 0.00 | 0.00 | 0.00 | 78 | 1014.4 |
| 20260508164556 | 74 | 35 | 2.0 | 7.0 | 0.00 | 0.00 | 0.00 | 80 | 1014.5 |
| 20260508163053 | 73 | 135 | 1.0 | 7.0 | 0.00 | 0.00 | 0.00 | 79 | 1014.8 |
| 20260508161601 | 74 | 0 | 1.0 | 4.0 | 0.00 | 0.00 | 0.00 | 80 | 1014.9 |
| 20260508160104 | 74 | 111 | 1.0 | 4.0 | 0.00 | 0.00 | 0.00 | 79 | 1015.0 |
| 20260508154559 | 75 | 98 | 1.0 | 6.0 | 0.00 | 0.00 | 0.00 | 79 | 1015.1 |
| 20260508153103 | 74 | 72 | 0.0 | 6.0 | 0.00 | 0.00 | 0.00 | 79 | 1015.1 |
| 20260508151558 | 74 | 12 | 0.0 | 5.0 | 0.00 | 0.00 | 0.00 | 78 | 1015.3 |
| 20260508150059 | 74 | 80 | 1.0 | 3.0 | 0.00 | 0.00 | 0.00 | 78 | 1015.0 |
| 20260508144555 | 75 | 98 | 1.0 | 4.0 | 0.00 | 0.00 | 0.00 | 79 | 1015.1 |
| 20260508143100 | 74 | 69 | 2.0 | 7.0 | 0.00 | 0.00 | 0.00 | 81 | 1014.8 |
| 20260508141559 | 73 | 85 | 1.0 | 6.0 | 0.00 | 0.00 | 0.00 | 82 | 1015.0 |
| 20260508140100 | 73 | 67 | 0.0 | 3.0 | 0.00 | 0.00 | 0.00 | 82 | 1015.0 |
| 20260508134600 | 73 | 0 | 0.0 | 3.0 | 0.00 | 0.00 | 0.00 | 82 | 1015.0 |
| 20260508133050 | 73 | 0 | 1.0 | 6.0 | 0.00 | 0.00 | 0.00 | 82 | 1014.9 |
| 20260508131551 | 73 | 0 | 2.0 | 8.0 | 0.00 | 0.00 | 0.00 | 83 | 1014.4 |
| 20260508130050 | 73 | 351 | 1.0 | 4.0 | 0.00 | 0.00 | 0.00 | 83 | 1014.2 |
| 20260508124550 | 72 | 166 | 1.0 | 5.0 | 0.00 | 0.00 | 0.00 | 84 | 1014.6 |
| 20260508123106 | 72 | 159 | 1.0 | 6.0 | 0.00 | 0.00 | 0.00 | 87 | 1014.4 |
| 20260508121556 | 74 | 0 | 1.0 | 11.0 | 0.00 | 0.00 | 0.00 | 90 | 1014.1 |
| 20260508120055 | 75 | 0 | 0.0 | 3.0 | 0.00 | 0.00 | 0.00 | 92 | 1013.8 |
| 20260508114553 | 75 | 0 | 0.0 | 2.0 | 0.00 | 0.00 | 0.00 | 93 | 1013.4 |
| 20260508113100 | 75 | 252 | 0.0 | 2.0 | 0.00 | 0.00 | 0.00 | 93 | 1013.2 |
| 20260508111556 | 75 | 0 | 0.0 | 4.0 | 0.00 | 0.00 | 0.00 | 93 | 1013.0 |
| 20260508110053 | 75 | 0 | 0.0 | 2.0 | 0.00 | 0.00 | 0.00 | 93 | 1012.8 |
| 20260508104555 | 75 | 312 | 0.0 | 2.0 | 0.00 | 0.00 | 0.00 | 93 | 1012.4 |
| 20260508103056 | 75 | 304 | 0.0 | 6.0 | 0.00 | 0.00 | 0.00 | 93 | 1012.2 |
| 20260508101552 | 75 | 9 | 0.0 | 3.0 | 0.00 | 0.00 | 0.00 | 94 | 1012.2 |
| 20260508100049 | 76 | 294 | 1.0 | 4.0 | 0.00 | 0.00 | 0.00 | 93 | 1012.0 |
| 20260508094610 | 76 | 298 | 0.0 | 1.0 | 0.00 | 0.00 | 0.00 | 93 | 1011.9 |
| 20260508093050 | 76 | 298 | 1.0 | 4.0 | 0.00 | 0.00 | 0.00 | 92 | 1011.7 |